Jackson Evers International Airport
KJAN : rendu visible

Aérodrome :











RETROUVEZ-NOUS SUR...

 
LOGIN :

S'inscrire | Disclaimer

   EN    FR    IT 

 









Légende :    VFR   VFR Marginal   IFR   IFR Intensif   IFR Très Intensif
Visi : 
Plafond : 
>= 8 km
>= 3000ft
5 à 8 km
1000 à 3000 ft
1500m à 5 km
500 à 1000 ft
800 à 1500m
200 à 500 ft
< 800m
< 200 ft
Symboles :   Orages  Brouillard  Fortes neiges  Fortes précipitations  Vent > 20 kt






- Altitude de l'aérodrome : 346 ft
- Code IATA : JAN


KJAN - Jackson Evers International

DERNIER METAR :
  • 250754Z 14006KT 10SM CLR 23/20 A3005 RMK AO2 SLP170 T02330200

METARs EXPIRÉS :
  • 250654Z 15005KT 10SM CLR 24/20 A3005 RMK AO2 SLP169 T02390200

TAF KJAN
Valide du 25 à 06h jusqu'au 26 à 06h UTC


250530Z 2506/2606 14005KT P6SM FEW025
FM251100 15005KT P6SM BKN015
FM251500 16008KT P6SM OVC025
FM251700 16009KT P6SM BKN035
FM252100 15009KT P6SM VCTS OVC050CB
FM260100 15007KT P6SM BKN250
FIR KZME / Amérique du Nord



MET'MAP, la Météo Aéronautique d'un coup d'oeil ! - Copyright ORBIFLY Décembre 2007 - Disclaimer

ORBIFLY MET'MAP TEAM :

Programmation & Développement : Alexandra Zaïnal
Sur une idée originale de : Baudouin d'Aumeries
Assistance à la programmation : Marc-Olivier Méhu
Soutien technique & logistique : Manuel Goepfert

Contact : metmap@orbifly.com




SOURCES & CREDITS :

   NOAA       Earth
Advisory